Time;durP1;ratioP1;P1;durP2;ratioP2;P2;SDS_P1;SDS_P2;PMS_P1;PMS_P2;Temp;Humidity;BMP_temperature;BMP_pressure;BME280_temperature;BME280_humidity;BME280_pressure;Samples;Min_cycle;Max_cycle;Signal;HPM_P1;HPM_P2
2022/06/15 00:00:22;;;;;;;5.63;4.05;;;;;;;;;;5031715;28;20190;-75
2022/06/15 00:02:47;;;;;;;4.53;4.05;;;;;;;;;;5041376;28;20671;-75
2022/06/15 00:05:12;;;;;;;7.18;4.50;;;;;;;;;;5037534;28;20850;-75
2022/06/15 00:07:38;;;;;;;6.90;4.43;;;;;;;;;;5036006;28;20178;-76
2022/06/15 00:10:03;;;;;;;11.65;4.78;;;;;;;;;;5039364;28;20185;-74
2022/06/15 00:12:28;;;;;;;8.32;5.15;;;;;;;;;;5036809;28;20214;-74
2022/06/15 00:14:55;;;;;;;5.05;3.92;;;;;;;;;;5031395;28;20174;-76
2022/06/15 00:17:20;;;;;;;7.35;4.80;;;;;;;;;;5031156;28;20651;-73
2022/06/15 00:19:46;;;;;;;8.95;4.70;;;;;;;;;;5034695;28;20181;-74
2022/06/15 00:22:11;;;;;;;6.85;4.30;;;;;;;;;;5041320;28;20201;-76
2022/06/15 00:24:37;;;;;;;7.95;4.53;;;;;;;;;;5039904;28;20651;-73
2022/06/15 00:27:03;;;;;;;7.60;4.80;;;;;;;;;;5038810;28;20194;-76
2022/06/15 00:29:30;;;;;;;8.77;4.60;;;;;;;;;;5031796;28;20177;-75
2022/06/15 00:31:55;;;;;;;9.00;4.72;;;;;;;;;;5037995;28;20175;-75
2022/06/15 00:34:20;;;;;;;7.28;4.68;;;;;;;;;;5037953;28;21100;-75
2022/06/15 00:36:45;;;;;;;6.32;4.00;;;;;;;;;;5038976;28;20182;-75
2022/06/15 00:39:10;;;;;;;8.02;5.20;;;;;;;;;;5038447;28;21156;-75
2022/06/15 00:41:37;;;;;;;7.03;4.53;;;;;;;;;;5047391;28;20177;-75
2022/06/15 00:44:02;;;;;;;5.85;4.38;;;;;;;;;;5040824;28;20186;-75
2022/06/15 00:46:27;;;;;;;5.50;4.80;;;;;;;;;;5045368;28;20205;-73
2022/06/15 00:48:54;;;;;;;6.77;4.23;;;;;;;;;;5034743;28;20260;-74
2022/06/15 00:51:20;;;;;;;6.10;4.35;;;;;;;;;;5036602;28;20509;-73
2022/06/15 00:53:46;;;;;;;8.97;4.07;;;;;;;;;;5036511;28;20217;-76
2022/06/15 00:56:11;;;;;;;6.32;4.50;;;;;;;;;;5036806;28;20201;-73
2022/06/15 00:58:38;;;;;;;8.38;4.70;;;;;;;;;;5033949;28;20609;-74
2022/06/15 01:01:04;;;;;;;6.03;5.05;;;;;;;;;;5037325;28;20268;-76
2022/06/15 01:03:29;;;;;;;7.47;4.67;;;;;;;;;;5045812;28;20272;-74
2022/06/15 01:05:54;;;;;;;7.47;5.60;;;;;;;;;;5044953;28;20209;-75
2022/06/15 01:08:19;;;;;;;8.27;5.25;;;;;;;;;;5044986;28;20244;-75
2022/06/15 01:10:45;;;;;;;7.15;4.30;;;;;;;;;;5048100;28;20190;-77
2022/06/15 01:13:19;;;;;;;8.00;4.60;;;;;;;;;;5045378;28;20672;-75
2022/06/15 01:15:51;;;;;;;4.37;3.97;;;;;;;;;;5040066;28;20184;-75
2022/06/15 01:18:42;;;;;;;8.43;4.37;;;;;;;;;;5038318;28;20175;-75
2022/06/15 01:21:10;;;;;;;9.20;4.57;;;;;;;;;;5029691;28;20276;-75
2022/06/15 01:23:39;;;;;;;5.50;4.10;;;;;;;;;;5037118;28;20201;-74
2022/06/15 01:26:23;;;;;;;10.07;4.47;;;;;;;;;;5044278;28;20209;-74
2022/06/15 01:28:51;;;;;;;5.43;4.40;;;;;;;;;;5030653;28;20178;-74
2022/06/15 01:31:31;;;;;;;7.80;4.87;;;;;;;;;;5047100;28;20283;-74
2022/06/15 01:34:11;;;;;;;9.83;5.80;;;;;;;;;;5041202;28;20197;-74
2022/06/15 01:36:55;;;;;;;4.75;4.15;;;;;;;;;;5038493;28;20186;-75
2022/06/15 01:39:28;;;;;;;7.33;4.47;;;;;;;;;;5040599;28;20224;-75
2022/06/15 01:42:13;;;;;;;10.20;5.50;;;;;;;;;;5043559;28;20217;-73
2022/06/15 01:44:41;;;;;;;10.53;5.53;;;;;;;;;;5031581;28;20712;-75
2022/06/15 01:47:15;;;;;;;4.40;4.00;;;;;;;;;;5046296;28;20194;-74
2022/06/15 01:49:42;;;;;;;6.73;4.00;;;;;;;;;;5042255;28;20272;-76
2022/06/15 01:52:09;;;;;;;9.23;5.80;;;;;;;;;;5039189;28;20682;-76
2022/06/15 01:54:39;;;;;;;6.60;4.33;;;;;;;;;;5038697;28;20177;-74
2022/06/15 01:57:05;;;;;;;7.77;4.33;;;;;;;;;;5035475;28;20736;-74
2022/06/15 01:59:35;;;;;;;6.90;4.33;;;;;;;;;;5040926;28;20223;-75
2022/06/15 02:02:14;;;;;;;5.77;4.60;;;;;;;;;;5037104;28;20182;-73
2022/06/15 02:05:06;;;;;;;6.67;4.10;;;;;;;;;;5044009;28;20253;-75
2022/06/15 02:07:31;;;;;;;7.60;3.93;;;;;;;;;;5031707;28;20667;-75
2022/06/15 02:09:59;;;;;;;6.43;4.20;;;;;;;;;;5039524;28;20193;-75
2022/06/15 02:12:31;;;;;;;5.10;4.20;;;;;;;;;;5045445;28;20455;-75
2022/06/15 02:14:59;;;;;;;5.37;4.00;;;;;;;;;;5041586;28;20607;-75
2022/06/15 02:17:26;;;;;;;7.10;4.23;;;;;;;;;;5036259;28;20178;-74
2022/06/15 02:19:54;;;;;;;8.90;4.27;;;;;;;;;;5040983;28;20736;-75
2022/06/15 02:22:21;;;;;;;6.33;4.17;;;;;;;;;;5039576;28;20178;-75
2022/06/15 02:24:48;;;;;;;5.70;4.20;;;;;;;;;;5037547;28;20216;-75
2022/06/15 02:27:14;;;;;;;6.53;4.33;;;;;;;;;;5045124;28;20709;-75
2022/06/15 02:29:41;;;;;;;6.80;4.13;;;;;;;;;;5042047;28;20185;-75
2022/06/15 02:32:07;;;;;;;10.67;5.63;;;;;;;;;;5042270;28;20201;-75
2022/06/15 02:34:33;;;;;;;7.70;5.03;;;;;;;;;;5044285;28;20169;-75
2022/06/15 02:36:58;;;;;;;7.80;4.00;;;;;;;;;;5041909;28;20803;-75
2022/06/15 02:39:23;;;;;;;5.37;4.30;;;;;;;;;;5036071;28;20187;-75
2022/06/15 02:41:55;;;;;;;4.77;3.70;;;;;;;;;;5041794;28;20610;-75
2022/06/15 02:44:20;;;;;;;7.20;4.00;;;;;;;;;;5048003;28;20204;-75
2022/06/15 02:46:47;;;;;;;5.20;4.33;;;;;;;;;;5047209;28;20196;-75
2022/06/15 02:49:13;;;;;;;7.43;4.43;;;;;;;;;;5045102;28;20177;-76
2022/06/15 02:51:57;;;;;;;7.07;4.10;;;;;;;;;;5047207;28;20260;-75
2022/06/15 02:54:29;;;;;;;7.30;4.40;;;;;;;;;;5039501;28;20200;-76
2022/06/15 02:56:55;;;;;;;7.23;4.47;;;;;;;;;;5040067;28;20190;-75
2022/06/15 02:59:20;;;;;;;5.60;4.93;;;;;;;;;;5033825;28;20230;-75
2022/06/15 03:01:45;;;;;;;8.83;4.70;;;;;;;;;;5041170;28;20261;-75
2022/06/15 03:04:10;;;;;;;8.10;4.63;;;;;;;;;;5040054;28;20177;-76
2022/06/15 03:06:36;;;;;;;5.73;4.57;;;;;;;;;;5042691;28;20198;-75
2022/06/15 03:09:01;;;;;;;7.10;4.33;;;;;;;;;;5041821;28;20185;-74
2022/06/15 03:11:26;;;;;;;6.70;5.13;;;;;;;;;;5039419;28;20186;-76
2022/06/15 03:13:52;;;;;;;4.80;4.30;;;;;;;;;;5042463;28;20210;-74
2022/06/15 03:16:17;;;;;;;5.83;4.60;;;;;;;;;;5039161;28;20210;-76
2022/06/15 03:18:42;;;;;;;5.43;4.23;;;;;;;;;;5042278;28;20173;-76
2022/06/15 03:21:07;;;;;;;7.27;4.87;;;;;;;;;;5043622;28;20235;-73
2022/06/15 03:23:32;;;;;;;9.77;4.93;;;;;;;;;;5045556;28;20602;-75
2022/06/15 03:25:59;;;;;;;7.63;5.33;;;;;;;;;;5043521;28;20225;-75
2022/06/15 03:28:24;;;;;;;6.43;4.50;;;;;;;;;;5041570;28;20269;-75
2022/06/15 03:30:49;;;;;;;4.77;4.30;;;;;;;;;;5036722;28;20265;-76
2022/06/15 03:33:15;;;;;;;5.10;4.43;;;;;;;;;;5031625;28;20206;-74
2022/06/15 03:35:40;;;;;;;5.83;4.67;;;;;;;;;;5043132;28;20674;-75
2022/06/15 03:38:09;;;;;;;7.27;4.60;;;;;;;;;;5049360;28;20177;-76
2022/06/15 03:40:38;;;;;;;7.73;4.83;;;;;;;;;;5044745;28;20261;-75
2022/06/15 03:43:04;;;;;;;7.27;4.87;;;;;;;;;;5044818;28;20189;-75
2022/06/15 03:45:30;;;;;;;11.17;5.20;;;;;;;;;;5039824;28;20205;-75
2022/06/15 03:47:55;;;;;;;10.77;5.17;;;;;;;;;;5037702;28;20239;-75
2022/06/15 03:50:21;;;;;;;8.50;5.87;;;;;;;;;;5038481;28;20194;-74
2022/06/15 03:52:46;;;;;;;8.13;5.27;;;;;;;;;;5043896;28;20213;-74
2022/06/15 03:55:11;;;;;;;10.67;5.40;;;;;;;;;;5043847;28;20740;-74
2022/06/15 03:57:36;;;;;;;7.30;5.23;;;;;;;;;;5037891;28;20188;-74
2022/06/15 04:00:02;;;;;;;8.57;5.00;;;;;;;;;;5043968;28;20177;-74
2022/06/15 04:02:28;;;;;;;6.87;4.53;;;;;;;;;;5041883;28;20190;-74
2022/06/15 04:04:53;;;;;;;10.77;5.13;;;;;;;;;;5045241;28;20255;-74
2022/06/15 04:10:02;;;;;;;6.30;5.00;;;;;;;;;;5035794;28;20284;-75
2022/06/15 04:12:28;;;;;;;7.47;6.20;;;;;;;;;;5045901;28;20265;-75
2022/06/15 04:14:53;;;;;;;8.83;4.80;;;;;;;;;;5041424;28;20169;-75
2022/06/15 04:17:18;;;;;;;8.70;4.40;;;;;;;;;;5039635;28;20185;-75
2022/06/15 04:19:44;;;;;;;6.63;4.70;;;;;;;;;;5035123;28;20177;-75
2022/06/15 04:22:09;;;;;;;6.37;5.03;;;;;;;;;;5040251;28;20182;-75
2022/06/15 04:24:34;;;;;;;7.93;4.80;;;;;;;;;;5045468;28;20982;-74
2022/06/15 04:27:00;;;;;;;6.43;4.65;;;;;;;;;;5036496;28;20197;-74
2022/06/15 04:29:25;;;;;;;4.95;4.10;;;;;;;;;;5042972;28;20188;-74
2022/06/15 04:31:50;;;;;;;7.72;4.40;;;;;;;;;;5044264;28;20525;-75
2022/06/15 04:34:16;;;;;;;7.15;4.10;;;;;;;;;;5042354;28;20305;-75
2022/06/15 04:36:42;;;;;;;6.00;4.38;;;;;;;;;;5047549;28;20205;-74
2022/06/15 04:39:09;;;;;;;6.70;4.22;;;;;;;;;;5040939;28;20174;-75
2022/06/15 04:41:38;;;;;;;4.65;3.83;;;;;;;;;;5037757;28;20180;-75
2022/06/15 04:44:05;;;;;;;6.47;4.40;;;;;;;;;;5042905;28;20175;-75
2022/06/15 04:46:30;;;;;;;8.32;4.22;;;;;;;;;;5041236;28;20312;-75
2022/06/15 04:48:55;;;;;;;6.30;4.13;;;;;;;;;;5038054;28;20264;-75
2022/06/15 04:51:22;;;;;;;8.05;4.15;;;;;;;;;;5041452;28;20174;-74
2022/06/15 04:53:48;;;;;;;6.10;4.35;;;;;;;;;;5038193;28;20268;-75
2022/06/15 04:56:13;;;;;;;5.13;4.45;;;;;;;;;;5040446;28;20202;-75
2022/06/15 04:58:39;;;;;;;6.65;3.70;;;;;;;;;;5036745;28;20173;-75
2022/06/15 05:01:05;;;;;;;7.22;4.28;;;;;;;;;;5034766;28;20265;-76
2022/06/15 05:03:30;;;;;;;7.13;3.80;;;;;;;;;;5041387;28;20308;-77
2022/06/15 05:05:56;;;;;;;4.82;3.90;;;;;;;;;;5037308;28;20573;-75
2022/06/15 05:08:21;;;;;;;7.90;4.10;;;;;;;;;;5039069;28;20190;-75
2022/06/15 05:10:47;;;;;;;8.45;4.32;;;;;;;;;;5034112;28;20198;-74
2022/06/15 05:13:12;;;;;;;7.75;4.50;;;;;;;;;;5039601;28;20197;-75
2022/06/15 05:15:38;;;;;;;9.32;3.72;;;;;;;;;;5040952;28;20227;-78
2022/06/15 05:18:04;;;;;;;5.57;3.97;;;;;;;;;;5031127;28;20167;-75
2022/06/15 05:20:30;;;;;;;7.43;4.25;;;;;;;;;;5036916;28;20569;-75
2022/06/15 05:22:55;;;;;;;4.68;3.80;;;;;;;;;;5043456;28;20231;-75
2022/06/15 05:25:20;;;;;;;7.55;3.67;;;;;;;;;;5039354;28;20264;-75
2022/06/15 05:27:45;;;;;;;5.88;4.05;;;;;;;;;;5043458;28;20642;-75
2022/06/15 05:30:11;;;;;;;6.07;3.88;;;;;;;;;;5036032;28;20186;-75
2022/06/15 05:32:36;;;;;;;6.32;3.47;;;;;;;;;;5047057;28;20189;-75
2022/06/15 05:35:02;;;;;;;8.55;4.18;;;;;;;;;;5046902;28;20178;-74
2022/06/15 05:37:27;;;;;;;4.68;3.78;;;;;;;;;;5035581;28;20184;-74
2022/06/15 05:39:52;;;;;;;6.10;4.22;;;;;;;;;;5043544;28;20176;-74
2022/06/15 05:42:18;;;;;;;10.38;4.00;;;;;;;;;;5046768;28;20722;-74
2022/06/15 05:44:49;;;;;;;4.15;3.40;;;;;;;;;;5044647;28;20180;-74
2022/06/15 05:47:14;;;;;;;8.18;3.83;;;;;;;;;;5046479;28;20199;-74
2022/06/15 05:49:39;;;;;;;5.88;3.63;;;;;;;;;;5039971;28;20208;-74
2022/06/15 05:52:05;;;;;;;4.88;3.70;;;;;;;;;;5044417;28;20235;-74
2022/06/15 05:54:30;;;;;;;6.70;4.10;;;;;;;;;;5038379;28;20200;-74
2022/06/15 05:56:55;;;;;;;5.43;3.30;;;;;;;;;;5041379;28;20194;-74
2022/06/15 05:59:20;;;;;;;4.07;3.17;;;;;;;;;;5040346;28;20231;-74
2022/06/15 06:01:45;;;;;;;8.05;3.60;;;;;;;;;;5039490;28;20234;-74
2022/06/15 06:04:12;;;;;;;5.93;3.97;;;;;;;;;;5040239;28;20185;-74
2022/06/15 06:06:38;;;;;;;5.95;3.55;;;;;;;;;;5031456;28;20221;-74
2022/06/15 06:09:03;;;;;;;9.23;5.15;;;;;;;;;;5038515;28;20179;-72
2022/06/15 06:11:28;;;;;;;5.25;3.22;;;;;;;;;;5034208;28;20197;-72
2022/06/15 06:13:54;;;;;;;7.70;3.53;;;;;;;;;;5036211;28;20226;-73
2022/06/15 06:16:20;;;;;;;6.13;3.58;;;;;;;;;;5038817;28;20276;-73
2022/06/15 06:18:45;;;;;;;6.45;3.50;;;;;;;;;;5035539;28;20252;-73
2022/06/15 06:21:10;;;;;;;4.00;3.28;;;;;;;;;;5039009;28;20208;-73
2022/06/15 06:23:36;;;;;;;5.53;3.50;;;;;;;;;;5036023;28;20177;-73
2022/06/15 06:26:02;;;;;;;5.28;3.60;;;;;;;;;;5034432;28;20714;-73
2022/06/15 06:28:31;;;;;;;8.23;3.40;;;;;;;;;;5037219;28;20213;-73
2022/06/15 06:31:00;;;;;;;6.72;3.72;;;;;;;;;;5029570;28;20324;-73
2022/06/15 06:33:26;;;;;;;8.43;2.95;;;;;;;;;;5033515;28;20209;-73
2022/06/15 06:35:52;;;;;;;7.40;3.40;;;;;;;;;;5042196;28;20216;-73
2022/06/15 06:38:17;;;;;;;9.13;3.92;;;;;;;;;;5044297;28;20639;-73
2022/06/15 06:40:42;;;;;;;5.55;3.33;;;;;;;;;;5036397;28;20193;-73
2022/06/15 06:43:08;;;;;;;11.70;3.55;;;;;;;;;;5034173;28;20178;-73
2022/06/15 06:45:33;;;;;;;9.73;2.90;;;;;;;;;;5035169;28;20248;-73
2022/06/15 06:48:00;;;;;;;4.20;3.10;;;;;;;;;;5033209;28;20430;-72
2022/06/15 06:50:25;;;;;;;6.70;3.47;;;;;;;;;;5037993;28;20244;-73
2022/06/15 06:52:50;;;;;;;8.70;3.38;;;;;;;;;;5033396;28;20621;-73
2022/06/15 06:55:15;;;;;;;4.07;2.53;;;;;;;;;;5031304;28;20341;-73
2022/06/15 06:57:41;;;;;;;9.02;2.67;;;;;;;;;;5043696;28;20414;-73
2022/06/15 07:00:06;;;;;;;5.28;3.20;;;;;;;;;;5041883;28;22025;-72
2022/06/15 07:02:31;;;;;;;7.10;2.58;;;;;;;;;;5033123;28;20182;-73
2022/06/15 07:04:57;;;;;;;3.97;2.93;;;;;;;;;;5035539;28;20213;-72
2022/06/15 07:07:22;;;;;;;6.53;2.53;;;;;;;;;;5037203;28;20422;-72
2022/06/15 07:09:47;;;;;;;4.83;2.60;;;;;;;;;;5030672;28;20480;-73
2022/06/15 07:12:12;;;;;;;8.10;2.50;;;;;;;;;;5036761;28;20541;-72
2022/06/15 07:14:37;;;;;;;6.05;2.85;;;;;;;;;;5035223;28;20166;-73
2022/06/15 07:17:03;;;;;;;5.05;2.60;;;;;;;;;;5033886;28;20198;-73
2022/06/15 07:19:28;;;;;;;7.70;2.92;;;;;;;;;;5018090;28;20186;-73
2022/06/15 07:21:53;;;;;;;4.80;2.95;;;;;;;;;;5012508;28;20178;-73
2022/06/15 07:24:18;;;;;;;9.25;3.17;;;;;;;;;;5013332;28;20380;-73
2022/06/15 07:26:47;;;;;;;6.43;2.40;;;;;;;;;;5017259;28;20203;-73
2022/06/15 07:29:13;;;;;;;5.65;2.10;;;;;;;;;;5016673;28;20586;-73
2022/06/15 07:31:40;;;;;;;5.35;2.10;;;;;;;;;;5018252;28;20182;-73
2022/06/15 07:34:06;;;;;;;5.03;2.33;;;;;;;;;;5016670;28;20210;-73
2022/06/15 07:36:31;;;;;;;4.10;2.67;;;;;;;;;;5016299;28;20197;-74
2022/06/15 07:38:57;;;;;;;4.90;2.22;;;;;;;;;;5016378;28;21019;-73
2022/06/15 07:41:23;;;;;;;6.45;1.73;;;;;;;;;;5017034;28;20194;-73
2022/06/15 07:43:48;;;;;;;3.70;1.63;;;;;;;;;;5014351;28;20193;-73
2022/06/15 07:46:14;;;;;;;4.25;1.73;;;;;;;;;;5020524;28;20204;-73
2022/06/15 07:51:24;;;;;;;9.90;1.92;;;;;;;;;;5019681;28;21140;-73
2022/06/15 07:53:49;;;;;;;3.33;1.50;;;;;;;;;;5015323;28;20340;-73
2022/06/15 07:56:14;;;;;;;3.70;1.92;;;;;;;;;;5019956;28;20209;-73
2022/06/15 07:58:40;;;;;;;6.30;2.00;;;;;;;;;;5018061;28;20284;-73
2022/06/15 08:01:05;;;;;;;4.80;1.83;;;;;;;;;;5028693;28;20463;-72
2022/06/15 08:03:30;;;;;;;3.53;1.50;;;;;;;;;;5018413;28;20440;-72
2022/06/15 08:05:55;;;;;;;4.53;1.57;;;;;;;;;;5017912;28;20455;-73
2022/06/15 08:08:22;;;;;;;4.68;1.80;;;;;;;;;;5021498;28;20428;-73
2022/06/15 08:10:47;;;;;;;3.85;1.80;;;;;;;;;;5020007;28;20190;-73
2022/06/15 08:13:12;;;;;;;5.25;2.00;;;;;;;;;;5017075;28;20217;-73
2022/06/15 08:15:41;;;;;;;6.47;2.28;;;;;;;;;;5026441;28;20201;-73
2022/06/15 08:18:10;;;;;;;6.65;2.42;;;;;;;;;;5014881;28;20240;-73
2022/06/15 08:20:36;;;;;;;5.75;1.98;;;;;;;;;;5022774;28;20182;-73
2022/06/15 08:23:09;;;;;;;6.57;1.77;;;;;;;;;;5029823;28;20196;-72
2022/06/15 08:25:37;;;;;;;3.47;1.70;;;;;;;;;;5017520;28;20304;-72
2022/06/15 08:28:03;;;;;;;6.93;1.38;;;;;;;;;;5016821;28;20722;-73
2022/06/15 08:30:28;;;;;;;3.47;1.35;;;;;;;;;;5014609;28;20476;-73
2022/06/15 08:32:54;;;;;;;3.83;1.75;;;;;;;;;;5022855;28;20220;-73
2022/06/15 08:35:19;;;;;;;5.72;1.70;;;;;;;;;;5022028;28;20577;-73
2022/06/15 08:37:44;;;;;;;2.65;1.52;;;;;;;;;;5018987;28;20626;-73
2022/06/15 08:40:10;;;;;;;5.28;1.83;;;;;;;;;;5012903;28;20185;-72
2022/06/15 08:42:50;;;;;;;5.13;1.88;;;;;;;;;;5034508;28;20173;-73
2022/06/15 08:45:18;;;;;;;2.45;1.58;;;;;;;;;;5022136;28;20214;-73
2022/06/15 08:48:00;;;;;;;4.78;1.80;;;;;;;;;;5016197;28;20190;-73
2022/06/15 08:50:26;;;;;;;5.03;2.03;;;;;;;;;;5022508;28;20171;-73
2022/06/15 08:52:56;;;;;;;4.25;1.70;;;;;;;;;;5018953;28;20228;-73
2022/06/15 08:55:27;;;;;;;5.15;1.70;;;;;;;;;;5019276;28;20247;-73
2022/06/15 08:57:56;;;;;;;2.00;1.38;;;;;;;;;;5017517;28;20178;-73
2022/06/15 09:00:22;;;;;;;7.47;1.80;;;;;;;;;;5022527;28;20186;-73
2022/06/15 09:02:47;;;;;;;3.73;1.93;;;;;;;;;;5023061;28;20240;-73
2022/06/15 09:05:18;;;;;;;5.38;2.42;;;;;;;;;;5024789;28;20533;-73
2022/06/15 09:07:43;;;;;;;3.97;1.60;;;;;;;;;;5024287;28;20727;-73
2022/06/15 09:10:09;;;;;;;5.15;1.92;;;;;;;;;;5023378;28;21629;-73
2022/06/15 09:13:01;;;;;;;5.20;1.95;;;;;;;;;;5022219;28;20289;-73
2022/06/15 09:15:32;;;;;;;3.83;2.08;;;;;;;;;;5032610;28;20214;-74
2022/06/15 09:18:00;;;;;;;3.30;1.60;;;;;;;;;;5022246;28;20186;-74
2022/06/15 09:20:30;;;;;;;3.28;1.80;;;;;;;;;;5021810;28;20178;-72
2022/06/15 09:23:06;;;;;;;7.07;2.58;;;;;;;;;;5018660;28;20290;-73
2022/06/15 09:25:41;;;;;;;4.20;1.63;;;;;;;;;;5019344;28;20321;-73
2022/06/15 09:28:39;;;;;;;5.68;2.20;;;;;;;;;;5022556;28;20181;-73
2022/06/15 09:31:10;;;;;;;5.60;1.80;;;;;;;;;;5012010;28;20320;-73
2022/06/15 09:33:38;;;;;;;4.38;1.92;;;;;;;;;;5025236;28;20268;-73
2022/06/15 09:36:11;;;;;;;6.95;2.13;;;;;;;;;;5021988;28;20566;-73
2022/06/15 09:38:37;;;;;;;4.10;1.77;;;;;;;;;;5021703;28;20321;-72
2022/06/15 09:41:21;;;;;;;4.07;1.85;;;;;;;;;;5023013;28;20182;-73
2022/06/15 09:43:59;;;;;;;6.50;2.63;;;;;;;;;;5022286;28;20182;-73
2022/06/15 09:46:33;;;;;;;4.95;1.40;;;;;;;;;;5027664;28;20198;-72
2022/06/15 09:49:21;;;;;;;4.15;2.00;;;;;;;;;;5018839;28;20174;-73
2022/06/15 09:51:49;;;;;;;3.17;1.70;;;;;;;;;;5019708;28;20178;-73
2022/06/15 09:54:21;;;;;;;5.32;1.60;;;;;;;;;;5023008;28;20613;-73
2022/06/15 09:56:47;;;;;;;4.45;1.75;;;;;;;;;;5022172;28;20249;-73
2022/06/15 09:59:14;;;;;;;4.03;1.60;;;;;;;;;;5018124;28;20185;-73
2022/06/15 10:01:41;;;;;;;3.88;1.40;;;;;;;;;;5021377;28;20202;-72
2022/06/15 10:04:13;;;;;;;5.63;2.13;;;;;;;;;;5018611;28;20177;-73
2022/06/15 10:06:38;;;;;;;3.28;1.90;;;;;;;;;;5019554;28;20249;-73
2022/06/15 10:09:06;;;;;;;4.47;1.70;;;;;;;;;;5018233;28;20190;-73
2022/06/15 10:11:34;;;;;;;3.50;1.60;;;;;;;;;;5023397;28;20450;-72
2022/06/15 10:14:18;;;;;;;4.18;1.85;;;;;;;;;;5025271;28;20210;-72
2022/06/15 10:16:48;;;;;;;5.93;1.92;;;;;;;;;;5024152;28;20202;-72
2022/06/15 10:19:13;;;;;;;3.72;1.45;;;;;;;;;;5016844;28;20544;-73
2022/06/15 10:21:39;;;;;;;3.75;1.50;;;;;;;;;;5018518;28;20171;-73
2022/06/15 10:24:13;;;;;;;3.72;1.85;;;;;;;;;;5017810;28;20194;-73
2022/06/15 10:26:40;;;;;;;4.35;1.60;;;;;;;;;;5018537;28;20662;-73
2022/06/15 10:29:14;;;;;;;5.07;1.75;;;;;;;;;;5019709;28;20199;-72
2022/06/15 10:31:40;;;;;;;2.45;1.40;;;;;;;;;;5024394;28;20182;-73
2022/06/15 10:34:25;;;;;;;4.32;1.65;;;;;;;;;;5018923;28;21607;-72
2022/06/15 10:36:55;;;;;;;5.10;1.50;;;;;;;;;;5018761;28;20287;-73
2022/06/15 10:39:31;;;;;;;3.33;1.50;;;;;;;;;;5019612;28;20569;-73
2022/06/15 10:41:59;;;;;;;3.58;1.40;;;;;;;;;;5020955;28;20189;-73
2022/06/15 10:44:27;;;;;;;3.20;1.63;;;;;;;;;;5019290;28;20675;-73
2022/06/15 10:46:58;;;;;;;3.97;1.55;;;;;;;;;;5025437;28;20213;-73
2022/06/15 10:49:24;;;;;;;3.55;1.70;;;;;;;;;;5020326;28;20235;-73
2022/06/15 10:51:49;;;;;;;4.15;1.70;;;;;;;;;;5021337;28;20234;-73
2022/06/15 10:54:20;;;;;;;3.95;1.70;;;;;;;;;;5017440;28;20583;-74
2022/06/15 11:02:41;;;;;;;2.03;1.30;;;;;;;;;;5018988;28;20189;-73
2022/06/15 11:05:09;;;;;;;4.13;1.40;;;;;;;;;;5019379;28;20196;-73
2022/06/15 11:07:40;;;;;;;3.70;1.63;;;;;;;;;;5018387;28;20218;-73
2022/06/15 11:10:19;;;;;;;4.95;1.50;;;;;;;;;;5024940;28;20193;-74
2022/06/15 11:12:46;;;;;;;4.47;1.55;;;;;;;;;;5022501;28;20268;-74
2022/06/15 11:15:14;;;;;;;3.00;1.20;;;;;;;;;;5020943;28;20582;-74
2022/06/15 11:18:01;;;;;;;3.88;1.60;;;;;;;;;;5022395;28;20170;-73
2022/06/15 11:20:32;;;;;;;2.60;1.30;;;;;;;;;;5018121;28;20177;-73
2022/06/15 11:23:09;;;;;;;4.43;1.80;;;;;;;;;;5017713;28;20655;-73
2022/06/15 11:25:41;;;;;;;3.75;1.23;;;;;;;;;;5017647;28;20209;-73
2022/06/15 11:28:09;;;;;;;4.03;1.60;;;;;;;;;;5017096;28;20642;-73
2022/06/15 11:30:36;;;;;;;3.17;1.58;;;;;;;;;;5017374;28;20181;-73
2022/06/15 11:33:04;;;;;;;4.03;1.30;;;;;;;;;;5022793;28;20212;-73
2022/06/15 11:35:34;;;;;;;2.53;1.30;;;;;;;;;;5019727;28;20233;-74
2022/06/15 11:38:18;;;;;;;5.60;1.67;;;;;;;;;;5022910;28;20177;-73
2022/06/15 11:40:53;;;;;;;5.53;1.40;;;;;;;;;;5017868;28;20186;-72
2022/06/15 11:43:21;;;;;;;3.70;1.30;;;;;;;;;;5015991;28;20181;-72
2022/06/15 11:45:49;;;;;;;3.47;1.33;;;;;;;;;;5023571;28;20189;-73
2022/06/15 11:48:15;;;;;;;3.22;1.40;;;;;;;;;;5019564;28;20178;-72
2022/06/15 11:50:51;;;;;;;3.58;1.30;;;;;;;;;;5018047;28;20869;-73
2022/06/15 11:53:19;;;;;;;3.72;1.50;;;;;;;;;;5027001;28;20208;-73
2022/06/15 11:55:57;;;;;;;4.47;1.67;;;;;;;;;;5023681;28;20259;-73
2022/06/15 11:58:38;;;;;;;3.65;1.52;;;;;;;;;;5016026;28;20193;-72
2022/06/15 12:01:03;;;;;;;2.80;1.20;;;;;;;;;;5019692;28;20177;-72
2022/06/15 12:03:47;;;;;;;4.25;1.17;;;;;;;;;;5018589;28;20209;-72
2022/06/15 12:06:21;;;;;;;3.13;1.40;;;;;;;;;;5014931;28;21279;-72
2022/06/15 12:09:02;;;;;;;3.03;1.10;;;;;;;;;;5017188;28;20173;-72
2022/06/15 12:14:24;;;;;;;5.22;1.40;;;;;;;;;;5018698;28;21121;-72
2022/06/15 12:17:13;;;;;;;8.55;1.60;;;;;;;;;;5021525;28;20208;-71
2022/06/15 12:19:57;;;;;;;5.35;1.25;;;;;;;;;;5013085;28;20193;-72
2022/06/15 12:22:27;;;;;;;3.63;1.35;;;;;;;;;;5018988;28;20188;-73
2022/06/15 12:24:58;;;;;;;2.47;1.23;;;;;;;;;;5014929;28;20180;-72
2022/06/15 12:27:37;;;;;;;4.45;1.40;;;;;;;;;;5015900;28;20185;-72
2022/06/15 12:30:14;;;;;;;3.95;1.25;;;;;;;;;;5016379;28;20308;-73
2022/06/15 12:32:45;;;;;;;2.95;1.23;;;;;;;;;;5024828;28;20203;-71
2022/06/15 12:35:29;;;;;;;6.68;2.13;;;;;;;;;;5022051;28;20193;-72
2022/06/15 12:37:57;;;;;;;5.93;2.13;;;;;;;;;;5021736;28;20183;-72
2022/06/15 12:40:28;;;;;;;3.78;1.90;;;;;;;;;;5021829;28;20231;-72
2022/06/15 12:42:57;;;;;;;2.38;1.40;;;;;;;;;;5029185;28;20269;-72
2022/06/15 12:45:26;;;;;;;3.13;1.35;;;;;;;;;;5021952;28;20205;-72
2022/06/15 12:47:55;;;;;;;3.53;1.25;;;;;;;;;;5024653;28;20272;-72
2022/06/15 12:50:29;;;;;;;4.10;1.63;;;;;;;;;;5022728;28;20224;-72
2022/06/15 12:53:07;;;;;;;4.38;1.40;;;;;;;;;;5022700;28;20210;-72
2022/06/15 12:55:40;;;;;;;4.97;1.60;;;;;;;;;;5024891;28;20642;-73
2022/06/15 12:58:26;;;;;;;4.68;1.73;;;;;;;;;;5021101;28;20189;-72
2022/06/15 13:01:18;;;;;;;3.40;1.40;;;;;;;;;;5021694;28;20200;-73
2022/06/15 13:03:58;;;;;;;4.70;1.52;;;;;;;;;;5020989;28;20216;-73
2022/06/15 13:06:30;;;;;;;4.10;1.77;;;;;;;;;;5022420;28;20215;-72
2022/06/15 13:08:58;;;;;;;4.60;1.77;;;;;;;;;;5021000;28;20406;-72
2022/06/15 13:11:23;;;;;;;3.35;1.48;;;;;;;;;;5024711;28;20193;-73
2022/06/15 13:13:53;;;;;;;4.80;1.33;;;;;;;;;;5027611;28;20200;-73
2022/06/15 13:16:38;;;;;;;3.92;1.45;;;;;;;;;;5028131;28;20267;-73
2022/06/15 13:19:07;;;;;;;5.05;1.70;;;;;;;;;;5019246;28;20178;-73
2022/06/15 13:22:08;;;;;;;2.55;1.30;;;;;;;;;;5019784;28;20457;-73
2022/06/15 13:24:53;;;;;;;4.13;1.10;;;;;;;;;;4990134;28;20190;-72
2022/06/15 13:27:21;;;;;;;2.67;1.60;;;;;;;;;;5014530;28;20189;-72
2022/06/15 13:29:51;;;;;;;4.80;1.80;;;;;;;;;;5020262;28;20176;-73
2022/06/15 13:32:36;;;;;;;4.47;1.50;;;;;;;;;;5027502;28;20200;-72
2022/06/15 13:35:20;;;;;;;2.85;1.35;;;;;;;;;;5019057;28;20847;-73
2022/06/15 13:38:16;;;;;;;3.50;1.60;;;;;;;;;;5019365;28;20276;-73
2022/06/15 13:40:53;;;;;;;3.00;1.30;;;;;;;;;;5018989;28;20196;-73
2022/06/15 13:43:18;;;;;;;6.55;1.75;;;;;;;;;;5022270;28;20255;-73
2022/06/15 13:45:44;;;;;;;3.00;1.60;;;;;;;;;;5025238;28;20205;-72
2022/06/15 13:48:17;;;;;;;4.25;1.30;;;;;;;;;;5020738;28;20717;-73
2022/06/15 13:50:48;;;;;;;4.80;1.50;;;;;;;;;;5018886;28;20312;-72
2022/06/15 13:53:32;;;;;;;4.43;1.50;;;;;;;;;;5022573;28;20290;-73
2022/06/15 13:55:57;;;;;;;2.53;1.30;;;;;;;;;;5022397;28;20204;-73
2022/06/15 13:58:33;;;;;;;3.50;1.58;;;;;;;;;;5022512;28;20184;-72
2022/06/15 14:01:02;;;;;;;2.47;1.23;;;;;;;;;;5019704;28;20250;-72
2022/06/15 14:03:46;;;;;;;4.03;1.25;;;;;;;;;;5021141;28;20272;-72
2022/06/15 14:06:24;;;;;;;4.47;1.40;;;;;;;;;;5019065;28;20267;-73
2022/06/15 14:09:04;;;;;;;4.13;1.50;;;;;;;;;;5043731;28;20176;-73
2022/06/15 14:11:35;;;;;;;4.10;1.60;;;;;;;;;;5046695;28;20232;-73
2022/06/15 14:14:09;;;;;;;6.30;1.58;;;;;;;;;;5045861;28;20276;-72
2022/06/15 14:16:34;;;;;;;3.42;1.52;;;;;;;;;;5038031;28;20193;-73
2022/06/15 14:19:01;;;;;;;3.55;1.20;;;;;;;;;;5039050;28;20177;-72
2022/06/15 14:21:31;;;;;;;4.05;1.55;;;;;;;;;;5041916;28;20185;-74
2022/06/15 14:23:57;;;;;;;4.60;1.27;;;;;;;;;;5024359;28;20217;-73
2022/06/15 14:26:24;;;;;;;3.30;1.55;;;;;;;;;;5021922;28;20298;-72
2022/06/15 14:28:56;;;;;;;3.63;1.27;;;;;;;;;;5018581;28;20228;-72
2022/06/15 14:31:26;;;;;;;4.97;1.65;;;;;;;;;;5017344;28;20182;-72
2022/06/15 14:33:52;;;;;;;3.58;1.42;;;;;;;;;;5022845;28;20206;-73
2022/06/15 14:36:19;;;;;;;4.18;1.08;;;;;;;;;;5020233;28;20220;-73
2022/06/15 14:38:58;;;;;;;3.33;1.23;;;;;;;;;;5021744;28;20209;-72
2022/06/15 14:41:25;;;;;;;1.45;1.05;;;;;;;;;;5008185;28;20181;-72
2022/06/15 14:43:51;;;;;;;4.95;1.35;;;;;;;;;;5018639;28;20205;-73
2022/06/15 14:46:21;;;;;;;1.65;1.38;;;;;;;;;;5027356;28;20205;-72
2022/06/15 14:48:48;;;;;;;4.85;1.70;;;;;;;;;;5017078;28;20218;-73
2022/06/15 14:51:15;;;;;;;5.95;1.50;;;;;;;;;;5019747;28;20667;-72
2022/06/15 14:54:02;;;;;;;6.18;1.52;;;;;;;;;;5018322;28;20699;-73
2022/06/15 14:56:32;;;;;;;3.20;1.30;;;;;;;;;;5027340;28;20201;-73
2022/06/15 14:58:58;;;;;;;6.78;1.52;;;;;;;;;;5017285;28;20292;-71
2022/06/15 15:01:23;;;;;;;5.03;1.52;;;;;;;;;;5025740;28;20181;-71
2022/06/15 15:03:48;;;;;;;2.50;1.47;;;;;;;;;;5019133;28;20182;-72
2022/06/15 15:06:15;;;;;;;4.20;1.40;;;;;;;;;;5020179;28;20217;-72
2022/06/15 15:08:45;;;;;;;2.47;1.40;;;;;;;;;;5016335;28;20276;-71